sensor_id;sensor_type;location;lat;lon;timestamp;temperature;humidity
326;DHT22;150;52.352;14.058;2023-10-08T00:01:38;14.50;47.00
326;DHT22;150;52.352;14.058;2023-10-08T00:04:08;14.50;47.00
326;DHT22;150;52.352;14.058;2023-10-08T00:06:36;14.60;47.10
326;DHT22;150;52.352;14.058;2023-10-08T00:09:03;14.50;47.00
326;DHT22;150;52.352;14.058;2023-10-08T00:11:34;14.60;47.20
326;DHT22;150;52.352;14.058;2023-10-08T00:14:04;14.50;47.00
326;DHT22;150;52.352;14.058;2023-10-08T00:16:36;14.50;47.00
326;DHT22;150;52.352;14.058;2023-10-08T00:19:05;14.50;47.00
326;DHT22;150;52.352;14.058;2023-10-08T00:21:34;14.50;47.00
326;DHT22;150;52.352;14.058;2023-10-08T00:24:02;14.50;47.70
326;DHT22;150;52.352;14.058;2023-10-08T00:26:32;14.50;47.10
326;DHT22;150;52.352;14.058;2023-10-08T00:29:08;14.50;47.10
326;DHT22;150;52.352;14.058;2023-10-08T00:31:41;14.50;47.60
326;DHT22;150;52.352;14.058;2023-10-08T00:34:10;14.50;47.00
326;DHT22;150;52.352;14.058;2023-10-08T00:36:39;14.40;47.00
326;DHT22;150;52.352;14.058;2023-10-08T00:39:07;14.30;46.90
326;DHT22;150;52.352;14.058;2023-10-08T00:41:40;14.30;46.90
326;DHT22;150;52.352;14.058;2023-10-08T00:44:10;14.30;47.60
326;DHT22;150;52.352;14.058;2023-10-08T00:46:39;14.20;47.60
326;DHT22;150;52.352;14.058;2023-10-08T00:49:14;14.20;48.10
326;DHT22;150;52.352;14.058;2023-10-08T00:51:51;14.30;48.60
326;DHT22;150;52.352;14.058;2023-10-08T00:54:30;14.30;48.20
326;DHT22;150;52.352;14.058;2023-10-08T00:57:00;14.20;47.90
326;DHT22;150;52.352;14.058;2023-10-08T00:59:33;14.20;48.30
326;DHT22;150;52.352;14.058;2023-10-08T01:02:08;14.20;48.30
326;DHT22;150;52.352;14.058;2023-10-08T01:04:41;14.10;48.10
326;DHT22;150;52.352;14.058;2023-10-08T01:07:10;14.00;48.40
326;DHT22;150;52.352;14.058;2023-10-08T01:09:39;14.10;48.60
326;DHT22;150;52.352;14.058;2023-10-08T01:12:09;14.20;48.50
326;DHT22;150;52.352;14.058;2023-10-08T01:14:40;14.20;48.20
326;DHT22;150;52.352;14.058;2023-10-08T01:17:08;14.10;48.50
326;DHT22;150;52.352;14.058;2023-10-08T01:19:40;14.10;48.70
326;DHT22;150;52.352;14.058;2023-10-08T01:22:12;14.10;49.20
326;DHT22;150;52.352;14.058;2023-10-08T01:24:47;14.20;48.50
326;DHT22;150;52.352;14.058;2023-10-08T01:27:14;14.20;48.70
326;DHT22;150;52.352;14.058;2023-10-08T01:29:47;14.20;49.60
326;DHT22;150;52.352;14.058;2023-10-08T01:32:15;14.20;49.00
326;DHT22;150;52.352;14.058;2023-10-08T01:34:42;14.20;48.80
326;DHT22;150;52.352;14.058;2023-10-08T01:37:14;14.20;48.60
326;DHT22;150;52.352;14.058;2023-10-08T01:39:43;14.30;48.40
326;DHT22;150;52.352;14.058;2023-10-08T01:42:11;14.20;47.60
326;DHT22;150;52.352;14.058;2023-10-08T01:44:44;14.20;48.40
326;DHT22;150;52.352;14.058;2023-10-08T01:47:12;14.20;48.90
326;DHT22;150;52.352;14.058;2023-10-08T01:49:41;14.20;48.80
326;DHT22;150;52.352;14.058;2023-10-08T01:52:10;14.20;48.60
326;DHT22;150;52.352;14.058;2023-10-08T01:54:44;14.20;48.00
326;DHT22;150;52.352;14.058;2023-10-08T01:57:11;14.10;48.50
326;DHT22;150;52.352;14.058;2023-10-08T01:59:38;14.20;48.40
326;DHT22;150;52.352;14.058;2023-10-08T02:02:05;14.80;49.40
326;DHT22;150;52.352;14.058;2023-10-08T02:04:50;14.10;48.50
326;DHT22;150;52.352;14.058;2023-10-08T02:07:17;14.20;49.00
326;DHT22;150;52.352;14.058;2023-10-08T02:09:45;14.20;49.00
326;DHT22;150;52.352;14.058;2023-10-08T02:12:12;14.20;49.00
326;DHT22;150;52.352;14.058;2023-10-08T02:14:40;14.20;49.00
326;DHT22;150;52.352;14.058;2023-10-08T02:17:10;14.10;49.40
326;DHT22;150;52.352;14.058;2023-10-08T02:19:38;14.20;48.60
326;DHT22;150;52.352;14.058;2023-10-08T02:22:07;14.10;48.60
326;DHT22;150;52.352;14.058;2023-10-08T02:24:35;14.10;49.20
326;DHT22;150;52.352;14.058;2023-10-08T02:27:04;14.10;49.50
326;DHT22;150;52.352;14.058;2023-10-08T02:29:30;14.20;49.20
326;DHT22;150;52.352;14.058;2023-10-08T02:32:00;14.30;48.90
326;DHT22;150;52.352;14.058;2023-10-08T02:34:27;14.20;49.00
326;DHT22;150;52.352;14.058;2023-10-08T02:36:56;14.20;49.60
326;DHT22;150;52.352;14.058;2023-10-08T02:39:22;14.20;48.60
326;DHT22;150;52.352;14.058;2023-10-08T02:41:52;14.10;49.00
326;DHT22;150;52.352;14.058;2023-10-08T02:44:26;14.20;49.20
326;DHT22;150;52.352;14.058;2023-10-08T02:46:53;14.20;48.90
326;DHT22;150;52.352;14.058;2023-10-08T02:49:21;14.10;49.10
326;DHT22;150;52.352;14.058;2023-10-08T02:51:52;14.20;49.70
326;DHT22;150;52.352;14.058;2023-10-08T02:54:20;14.10;49.50
326;DHT22;150;52.352;14.058;2023-10-08T02:56:53;14.10;49.20
326;DHT22;150;52.352;14.058;2023-10-08T02:59:23;14.10;49.00
326;DHT22;150;52.352;14.058;2023-10-08T03:01:52;14.10;49.30
326;DHT22;150;52.352;14.058;2023-10-08T03:04:21;14.10;49.10
326;DHT22;150;52.352;14.058;2023-10-08T03:06:50;14.10;49.50
326;DHT22;150;52.352;14.058;2023-10-08T03:09:18;14.20;50.00
326;DHT22;150;52.352;14.058;2023-10-08T03:11:49;14.10;48.90
326;DHT22;150;52.352;14.058;2023-10-08T03:14:19;14.10;49.00
326;DHT22;150;52.352;14.058;2023-10-08T03:16:58;14.20;48.90
326;DHT22;150;52.352;14.058;2023-10-08T03:19:33;14.20;48.60
326;DHT22;150;52.352;14.058;2023-10-08T03:22:01;14.20;48.80
326;DHT22;150;52.352;14.058;2023-10-08T03:24:30;14.20;48.40
326;DHT22;150;52.352;14.058;2023-10-08T03:27:03;14.20;48.40
326;DHT22;150;52.352;14.058;2023-10-08T03:29:38;14.10;48.30
326;DHT22;150;52.352;14.058;2023-10-08T03:32:09;14.10;48.80
326;DHT22;150;52.352;14.058;2023-10-08T03:34:43;14.10;48.80
326;DHT22;150;52.352;14.058;2023-10-08T03:37:16;14.10;48.90
326;DHT22;150;52.352;14.058;2023-10-08T03:39:47;14.10;48.50
326;DHT22;150;52.352;14.058;2023-10-08T03:42:48;14.10;48.60
326;DHT22;150;52.352;14.058;2023-10-08T03:45:15;14.20;48.60
326;DHT22;150;52.352;14.058;2023-10-08T03:47:49;14.20;48.60
326;DHT22;150;52.352;14.058;2023-10-08T03:50:29;14.20;48.90
326;DHT22;150;52.352;14.058;2023-10-08T03:53:06;14.20;48.10
326;DHT22;150;52.352;14.058;2023-10-08T03:55:39;14.20;48.40
326;DHT22;150;52.352;14.058;2023-10-08T03:58:07;14.30;48.70
326;DHT22;150;52.352;14.058;2023-10-08T04:00:49;14.20;48.10
326;DHT22;150;52.352;14.058;2023-10-08T04:03:25;14.30;48.50
326;DHT22;150;52.352;14.058;2023-10-08T04:06:13;14.20;48.40
326;DHT22;150;52.352;14.058;2023-10-08T04:08:41;14.30;48.00
326;DHT22;150;52.352;14.058;2023-10-08T04:11:23;14.30;47.80
326;DHT22;150;52.352;14.058;2023-10-08T04:14:04;14.40;47.70
326;DHT22;150;52.352;14.058;2023-10-08T04:16:32;14.60;47.70
326;DHT22;150;52.352;14.058;2023-10-08T04:19:03;14.30;46.90
326;DHT22;150;52.352;14.058;2023-10-08T04:21:30;14.30;47.00
326;DHT22;150;52.352;14.058;2023-10-08T04:24:08;14.30;47.40
326;DHT22;150;52.352;14.058;2023-10-08T04:26:35;14.40;47.00
326;DHT22;150;52.352;14.058;2023-10-08T04:29:05;14.30;46.80
326;DHT22;150;52.352;14.058;2023-10-08T04:31:32;14.30;46.80
326;DHT22;150;52.352;14.058;2023-10-08T04:34:10;14.30;46.80
326;DHT22;150;52.352;14.058;2023-10-08T04:36:41;14.30;46.80
326;DHT22;150;52.352;14.058;2023-10-08T04:39:10;14.30;46.90
326;DHT22;150;52.352;14.058;2023-10-08T04:41:46;14.30;46.90
326;DHT22;150;52.352;14.058;2023-10-08T04:44:18;14.30;46.90
326;DHT22;150;52.352;14.058;2023-10-08T04:46:55;14.30;46.80
326;DHT22;150;52.352;14.058;2023-10-08T04:49:31;14.30;46.90
326;DHT22;150;52.352;14.058;2023-10-08T04:52:00;14.20;46.70
326;DHT22;150;52.352;14.058;2023-10-08T04:54:31;14.20;46.90
326;DHT22;150;52.352;14.058;2023-10-08T04:56:58;14.20;46.20
326;DHT22;150;52.352;14.058;2023-10-08T04:59:25;14.10;46.70
326;DHT22;150;52.352;14.058;2023-10-08T05:01:59;14.10;46.70
326;DHT22;150;52.352;14.058;2023-10-08T05:04:45;14.10;46.60
326;DHT22;150;52.352;14.058;2023-10-08T05:07:22;14.10;46.70
326;DHT22;150;52.352;14.058;2023-10-08T05:10:26;14.10;46.70
326;DHT22;150;52.352;14.058;2023-10-08T05:13:22;14.00;46.30
326;DHT22;150;52.352;14.058;2023-10-08T05:15:56;14.00;46.20
326;DHT22;150;52.352;14.058;2023-10-08T05:18:39;14.00;46.10
326;DHT22;150;52.352;14.058;2023-10-08T05:21:28;14.00;45.70
326;DHT22;150;52.352;14.058;2023-10-08T05:24:09;13.90;45.20
326;DHT22;150;52.352;14.058;2023-10-08T05:26:40;14.00;45.40
326;DHT22;150;52.352;14.058;2023-10-08T05:29:24;14.00;45.60
326;DHT22;150;52.352;14.058;2023-10-08T05:32:20;13.90;46.00
326;DHT22;150;52.352;14.058;2023-10-08T05:35:11;14.00;46.10
326;DHT22;150;52.352;14.058;2023-10-08T05:37:59;14.00;45.60
326;DHT22;150;52.352;14.058;2023-10-08T05:40:39;14.00;45.70
326;DHT22;150;52.352;14.058;2023-10-08T05:43:31;14.00;45.90
326;DHT22;150;52.352;14.058;2023-10-08T05:46:21;14.00;45.70
326;DHT22;150;52.352;14.058;2023-10-08T05:49:12;13.80;45.50
326;DHT22;150;52.352;14.058;2023-10-08T05:51:52;13.90;45.30
326;DHT22;150;52.352;14.058;2023-10-08T05:54:37;14.00;45.10
326;DHT22;150;52.352;14.058;2023-10-08T05:57:23;14.00;45.00
326;DHT22;150;52.352;14.058;2023-10-08T06:00:05;14.00;45.10
326;DHT22;150;52.352;14.058;2023-10-08T06:02:55;14.00;45.10
326;DHT22;150;52.352;14.058;2023-10-08T06:05:35;14.10;45.20
326;DHT22;150;52.352;14.058;2023-10-08T06:08:09;14.10;45.10
326;DHT22;150;52.352;14.058;2023-10-08T06:10:41;14.20;45.90
326;DHT22;150;52.352;14.058;2023-10-08T06:13:22;14.20;44.90
326;DHT22;150;52.352;14.058;2023-10-08T06:16:10;14.30;44.80
326;DHT22;150;52.352;14.058;2023-10-08T06:18:39;14.30;44.50
326;DHT22;150;52.352;14.058;2023-10-08T06:21:05;14.40;44.20
326;DHT22;150;52.352;14.058;2023-10-08T06:23:35;14.40;44.20
326;DHT22;150;52.352;14.058;2023-10-08T06:26:05;14.40;44.30
326;DHT22;150;52.352;14.058;2023-10-08T06:28:41;14.50;44.40
326;DHT22;150;52.352;14.058;2023-10-08T06:31:08;14.50;44.40
326;DHT22;150;52.352;14.058;2023-10-08T06:33:42;14.50;43.90
326;DHT22;150;52.352;14.058;2023-10-08T06:36:09;14.60;43.50
326;DHT22;150;52.352;14.058;2023-10-08T06:38:42;14.60;43.30
326;DHT22;150;52.352;14.058;2023-10-08T06:41:11;14.60;43.50
326;DHT22;150;52.352;14.058;2023-10-08T06:43:44;14.60;43.50
326;DHT22;150;52.352;14.058;2023-10-08T06:46:13;14.70;43.50
326;DHT22;150;52.352;14.058;2023-10-08T06:48:41;14.70;43.40
326;DHT22;150;52.352;14.058;2023-10-08T06:51:09;14.80;43.40
326;DHT22;150;52.352;14.058;2023-10-08T06:53:38;14.80;42.70
326;DHT22;150;52.352;14.058;2023-10-08T06:56:05;14.80;43.40
326;DHT22;150;52.352;14.058;2023-10-08T06:58:36;14.90;43.00
326;DHT22;150;52.352;14.058;2023-10-08T07:01:02;15.00;42.80
326;DHT22;150;52.352;14.058;2023-10-08T07:03:31;15.00;42.30
326;DHT22;150;52.352;14.058;2023-10-08T07:05:59;15.00;41.90
326;DHT22;150;52.352;14.058;2023-10-08T07:08:29;15.00;41.10
326;DHT22;150;52.352;14.058;2023-10-08T07:10:58;14.90;41.10
326;DHT22;150;52.352;14.058;2023-10-08T07:13:29;14.90;41.80
326;DHT22;150;52.352;14.058;2023-10-08T07:15:57;14.90;40.70
326;DHT22;150;52.352;14.058;2023-10-08T07:18:28;14.80;39.90
326;DHT22;150;52.352;14.058;2023-10-08T07:20:58;14.80;38.70
326;DHT22;150;52.352;14.058;2023-10-08T07:23:28;14.80;39.50
326;DHT22;150;52.352;14.058;2023-10-08T07:26:00;14.80;39.00
326;DHT22;150;52.352;14.058;2023-10-08T07:28:42;14.70;38.50
326;DHT22;150;52.352;14.058;2023-10-08T07:31:15;14.80;38.90
326;DHT22;150;52.352;14.058;2023-10-08T07:33:43;14.80;39.10
326;DHT22;150;52.352;14.058;2023-10-08T07:36:10;14.80;39.90
326;DHT22;150;52.352;14.058;2023-10-08T07:38:39;15.00;39.50
326;DHT22;150;52.352;14.058;2023-10-08T07:41:07;15.00;39.30
326;DHT22;150;52.352;14.058;2023-10-08T07:43:37;15.20;39.40
326;DHT22;150;52.352;14.058;2023-10-08T07:46:04;15.20;38.30
326;DHT22;150;52.352;14.058;2023-10-08T07:48:35;15.10;36.90
326;DHT22;150;52.352;14.058;2023-10-08T07:51:10;15.20;37.90
326;DHT22;150;52.352;14.058;2023-10-08T07:53:40;15.20;37.10
326;DHT22;150;52.352;14.058;2023-10-08T07:56:07;15.20;36.50
326;DHT22;150;52.352;14.058;2023-10-08T07:58:39;15.30;35.50
326;DHT22;150;52.352;14.058;2023-10-08T08:01:08;15.30;34.90
326;DHT22;150;52.352;14.058;2023-10-08T08:03:36;15.30;34.80
326;DHT22;150;52.352;14.058;2023-10-08T08:06:07;15.80;33.10
326;DHT22;150;52.352;14.058;2023-10-08T08:08:38;15.30;32.90
326;DHT22;150;52.352;14.058;2023-10-08T08:11:10;15.40;33.20
326;DHT22;150;52.352;14.058;2023-10-08T08:13:39;15.50;31.60
326;DHT22;150;52.352;14.058;2023-10-08T08:16:11;15.60;29.10
326;DHT22;150;52.352;14.058;2023-10-08T08:18:44;15.50;27.30
326;DHT22;150;52.352;14.058;2023-10-08T08:21:18;15.60;28.90
326;DHT22;150;52.352;14.058;2023-10-08T08:23:48;15.70;29.10
326;DHT22;150;52.352;14.058;2023-10-08T08:26:18;15.70;27.40
326;DHT22;150;52.352;14.058;2023-10-08T08:28:54;15.60;26.00
326;DHT22;150;52.352;14.058;2023-10-08T08:31:27;15.50;26.20
326;DHT22;150;52.352;14.058;2023-10-08T08:34:08;15.50;26.00
326;DHT22;150;52.352;14.058;2023-10-08T08:36:45;15.40;27.90
326;DHT22;150;52.352;14.058;2023-10-08T08:39:22;15.50;27.90
326;DHT22;150;52.352;14.058;2023-10-08T08:42:01;15.80;27.20
326;DHT22;150;52.352;14.058;2023-10-08T08:44:42;15.50;24.30
326;DHT22;150;52.352;14.058;2023-10-08T08:47:12;15.40;24.40
326;DHT22;150;52.352;14.058;2023-10-08T08:49:59;15.60;26.00
326;DHT22;150;52.352;14.058;2023-10-08T08:52:41;15.50;24.00
326;DHT22;150;52.352;14.058;2023-10-08T08:55:11;15.50;24.50
326;DHT22;150;52.352;14.058;2023-10-08T08:57:41;15.60;25.80
326;DHT22;150;52.352;14.058;2023-10-08T09:00:23;15.70;24.70
326;DHT22;150;52.352;14.058;2023-10-08T09:03:08;15.80;25.50
326;DHT22;150;52.352;14.058;2023-10-08T09:05:45;15.90;23.40
326;DHT22;150;52.352;14.058;2023-10-08T09:08:33;15.90;24.10
326;DHT22;150;52.352;14.058;2023-10-08T09:11:25;15.90;23.40
326;DHT22;150;52.352;14.058;2023-10-08T09:14:02;16.00;23.10
326;DHT22;150;52.352;14.058;2023-10-08T09:16:55;16.20;23.70
326;DHT22;150;52.352;14.058;2023-10-08T09:19:30;16.30;23.80
326;DHT22;150;52.352;14.058;2023-10-08T09:22:15;16.40;20.30
326;DHT22;150;52.352;14.058;2023-10-08T09:24:50;16.40;23.10
326;DHT22;150;52.352;14.058;2023-10-08T09:27:38;16.40;22.80
326;DHT22;150;52.352;14.058;2023-10-08T09:30:24;16.70;22.80
326;DHT22;150;52.352;14.058;2023-10-08T09:33:10;17.10;22.70
326;DHT22;150;52.352;14.058;2023-10-08T09:35:56;16.70;20.00
326;DHT22;150;52.352;14.058;2023-10-08T09:38:50;16.80;20.10
326;DHT22;150;52.352;14.058;2023-10-08T09:41:29;16.70;19.30
326;DHT22;150;52.352;14.058;2023-10-08T09:44:10;16.80;20.10
326;DHT22;150;52.352;14.058;2023-10-08T09:46:51;16.90;20.30
326;DHT22;150;52.352;14.058;2023-10-08T09:49:36;16.90;20.80
326;DHT22;150;52.352;14.058;2023-10-08T09:52:19;17.00;20.60
326;DHT22;150;52.352;14.058;2023-10-08T09:55:10;17.10;20.90
326;DHT22;150;52.352;14.058;2023-10-08T09:57:52;17.30;21.10
326;DHT22;150;52.352;14.058;2023-10-08T10:00:27;17.40;20.00
326;DHT22;150;52.352;14.058;2023-10-08T10:03:03;17.50;19.90
326;DHT22;150;52.352;14.058;2023-10-08T10:05:39;17.60;18.30
326;DHT22;150;52.352;14.058;2023-10-08T10:08:14;17.50;19.50
326;DHT22;150;52.352;14.058;2023-10-08T10:10:47;17.60;19.00
326;DHT22;150;52.352;14.058;2023-10-08T10:13:43;17.70;19.20
326;DHT22;150;52.352;14.058;2023-10-08T10:16:23;17.70;17.30
326;DHT22;150;52.352;14.058;2023-10-08T10:19:16;17.80;18.50
326;DHT22;150;52.352;14.058;2023-10-08T10:21:50;17.80;15.50
326;DHT22;150;52.352;14.058;2023-10-08T10:24:32;17.70;15.10
326;DHT22;150;52.352;14.058;2023-10-08T10:27:15;17.70;15.30
326;DHT22;150;52.352;14.058;2023-10-08T10:29:48;17.70;15.60
326;DHT22;150;52.352;14.058;2023-10-08T10:32:28;17.90;16.70
326;DHT22;150;52.352;14.058;2023-10-08T10:35:03;18.10;13.50
326;DHT22;150;52.352;14.058;2023-10-08T10:37:32;17.90;16.50
326;DHT22;150;52.352;14.058;2023-10-08T10:40:15;17.90;16.30
326;DHT22;150;52.352;14.058;2023-10-08T10:43:13;17.90;14.90
326;DHT22;150;52.352;14.058;2023-10-08T10:45:53;17.80;13.60
326;DHT22;150;52.352;14.058;2023-10-08T10:48:22;17.80;15.70
326;DHT22;150;52.352;14.058;2023-10-08T10:51:02;17.80;14.70
326;DHT22;150;52.352;14.058;2023-10-08T10:53:37;18.00;16.10
326;DHT22;150;52.352;14.058;2023-10-08T10:56:16;18.10;10.90
326;DHT22;150;52.352;14.058;2023-10-08T10:59:02;18.10;10.80
326;DHT22;150;52.352;14.058;2023-10-08T11:01:41;17.90;9.60
326;DHT22;150;52.352;14.058;2023-10-08T11:04:14;18.00;10.00
326;DHT22;150;52.352;14.058;2023-10-08T11:06:46;18.30;11.30
326;DHT22;150;52.352;14.058;2023-10-08T11:09:22;18.90;9.80
326;DHT22;150;52.352;14.058;2023-10-08T11:12:06;18.30;8.60
326;DHT22;150;52.352;14.058;2023-10-08T11:14:43;18.50;8.50
326;DHT22;150;52.352;14.058;2023-10-08T11:17:28;18.60;10.10
326;DHT22;150;52.352;14.058;2023-10-08T11:20:27;18.60;9.90
326;DHT22;150;52.352;14.058;2023-10-08T11:23:08;18.70;10.00
326;DHT22;150;52.352;14.058;2023-10-08T11:25:58;18.80;9.10
326;DHT22;150;52.352;14.058;2023-10-08T11:28:33;18.90;9.20
326;DHT22;150;52.352;14.058;2023-10-08T11:31:47;18.90;9.40
326;DHT22;150;52.352;14.058;2023-10-08T11:34:16;19.00;8.40
326;DHT22;150;52.352;14.058;2023-10-08T11:36:55;19.10;8.30
326;DHT22;150;52.352;14.058;2023-10-08T11:39:27;19.30;8.00
326;DHT22;150;52.352;14.058;2023-10-08T11:42:06;19.20;6.80
326;DHT22;150;52.352;14.058;2023-10-08T11:45:02;19.10;7.20
326;DHT22;150;52.352;14.058;2023-10-08T11:50:37;18.80;4.60
326;DHT22;150;52.352;14.058;2023-10-08T11:53:14;18.60;6.30
326;DHT22;150;52.352;14.058;2023-10-08T11:55:48;18.50;6.70
326;DHT22;150;52.352;14.058;2023-10-08T11:58:23;18.10;4.50
326;DHT22;150;52.352;14.058;2023-10-08T12:01:02;17.80;7.50
326;DHT22;150;52.352;14.058;2023-10-08T12:03:33;17.70;7.70
326;DHT22;150;52.352;14.058;2023-10-08T12:06:00;18.30;8.20
326;DHT22;150;52.352;14.058;2023-10-08T12:08:32;18.20;10.30
326;DHT22;150;52.352;14.058;2023-10-08T12:11:04;18.50;9.40
326;DHT22;150;52.352;14.058;2023-10-08T12:13:40;18.70;8.20
326;DHT22;150;52.352;14.058;2023-10-08T12:16:14;18.90;8.70
326;DHT22;150;52.352;14.058;2023-10-08T12:18:54;18.90;8.00
326;DHT22;150;52.352;14.058;2023-10-08T12:21:24;19.10;7.30
326;DHT22;150;52.352;14.058;2023-10-08T12:24:06;19.20;8.60
326;DHT22;150;52.352;14.058;2023-10-08T12:26:38;19.20;5.90
326;DHT22;150;52.352;14.058;2023-10-08T12:29:19;19.10;6.10
326;DHT22;150;52.352;14.058;2023-10-08T12:31:58;19.20;8.70
326;DHT22;150;52.352;14.058;2023-10-08T12:34:38;19.30;8.00
326;DHT22;150;52.352;14.058;2023-10-08T12:37:08;19.30;7.90
326;DHT22;150;52.352;14.058;2023-10-08T12:39:40;19.20;6.70
326;DHT22;150;52.352;14.058;2023-10-08T12:42:22;19.30;7.50
326;DHT22;150;52.352;14.058;2023-10-08T12:44:57;19.10;7.30
326;DHT22;150;52.352;14.058;2023-10-08T12:47:27;19.10;7.90
326;DHT22;150;52.352;14.058;2023-10-08T12:49:58;18.90;5.60
326;DHT22;150;52.352;14.058;2023-10-08T12:52:27;19.10;6.70
326;DHT22;150;52.352;14.058;2023-10-08T12:55:14;18.30;8.10
326;DHT22;150;52.352;14.058;2023-10-08T12:57:42;18.50;8.10
326;DHT22;150;52.352;14.058;2023-10-08T13:00:22;18.40;5.40
326;DHT22;150;52.352;14.058;2023-10-08T13:02:57;18.30;7.40
326;DHT22;150;52.352;14.058;2023-10-08T13:05:32;18.40;7.40
326;DHT22;150;52.352;14.058;2023-10-08T13:08:05;18.50;6.00
326;DHT22;150;52.352;14.058;2023-10-08T13:10:38;18.50;6.90
326;DHT22;150;52.352;14.058;2023-10-08T13:13:12;18.10;7.40
326;DHT22;150;52.352;14.058;2023-10-08T13:16:09;18.00;7.50
326;DHT22;150;52.352;14.058;2023-10-08T13:18:49;17.80;8.20
326;DHT22;150;52.352;14.058;2023-10-08T13:21:21;17.90;8.20
326;DHT22;150;52.352;14.058;2023-10-08T13:23:53;17.90;8.60
326;DHT22;150;52.352;14.058;2023-10-08T13:26:23;17.90;8.60
326;DHT22;150;52.352;14.058;2023-10-08T13:28:56;17.70;8.60
326;DHT22;150;52.352;14.058;2023-10-08T13:31:23;17.70;8.70
326;DHT22;150;52.352;14.058;2023-10-08T13:33:54;17.90;9.00
326;DHT22;150;52.352;14.058;2023-10-08T13:36:24;17.90;9.40
326;DHT22;150;52.352;14.058;2023-10-08T13:39:05;17.90;8.10
326;DHT22;150;52.352;14.058;2023-10-08T13:41:35;18.00;8.30
326;DHT22;150;52.352;14.058;2023-10-08T13:44:06;17.90;7.90
326;DHT22;150;52.352;14.058;2023-10-08T13:46:33;18.00;8.70
326;DHT22;150;52.352;14.058;2023-10-08T13:49:02;18.00;9.00
326;DHT22;150;52.352;14.058;2023-10-08T13:51:33;17.90;8.80
326;DHT22;150;52.352;14.058;2023-10-08T13:54:05;17.80;9.20
326;DHT22;150;52.352;14.058;2023-10-08T13:56:36;17.90;9.30
326;DHT22;150;52.352;14.058;2023-10-08T13:59:16;18.40;8.20
326;DHT22;150;52.352;14.058;2023-10-08T14:02:01;18.00;7.10
326;DHT22;150;52.352;14.058;2023-10-08T14:04:45;18.00;7.70
326;DHT22;150;52.352;14.058;2023-10-08T14:07:19;18.50;7.70
326;DHT22;150;52.352;14.058;2023-10-08T14:10:02;18.10;6.60
326;DHT22;150;52.352;14.058;2023-10-08T14:12:34;17.70;7.90
326;DHT22;150;52.352;14.058;2023-10-08T14:15:09;17.40;9.60
326;DHT22;150;52.352;14.058;2023-10-08T14:17:40;17.50;10.60
326;DHT22;150;52.352;14.058;2023-10-08T14:20:09;17.50;9.80
326;DHT22;150;52.352;14.058;2023-10-08T14:22:41;17.60;10.40
326;DHT22;150;52.352;14.058;2023-10-08T14:25:10;17.70;9.70
326;DHT22;150;52.352;14.058;2023-10-08T14:28:02;17.80;8.80
326;DHT22;150;52.352;14.058;2023-10-08T14:30:32;17.80;8.60
326;DHT22;150;52.352;14.058;2023-10-08T14:33:09;17.90;7.70
326;DHT22;150;52.352;14.058;2023-10-08T14:35:53;17.80;7.10
326;DHT22;150;52.352;14.058;2023-10-08T14:38:48;17.90;7.60
326;DHT22;150;52.352;14.058;2023-10-08T14:41:33;18.00;8.00
326;DHT22;150;52.352;14.058;2023-10-08T14:44:17;17.90;8.40
326;DHT22;150;52.352;14.058;2023-10-08T14:46:45;17.90;8.60
326;DHT22;150;52.352;14.058;2023-10-08T14:49:12;17.90;8.10
326;DHT22;150;52.352;14.058;2023-10-08T14:51:42;17.90;8.80
326;DHT22;150;52.352;14.058;2023-10-08T14:54:15;18.00;7.70
326;DHT22;150;52.352;14.058;2023-10-08T14:56:42;18.00;8.30
326;DHT22;150;52.352;14.058;2023-10-08T14:59:11;18.10;8.00
326;DHT22;150;52.352;14.058;2023-10-08T15:01:38;18.00;7.80
326;DHT22;150;52.352;14.058;2023-10-08T15:04:07;18.10;7.40
326;DHT22;150;52.352;14.058;2023-10-08T15:06:39;18.20;8.10
326;DHT22;150;52.352;14.058;2023-10-08T15:09:06;18.20;8.10
326;DHT22;150;52.352;14.058;2023-10-08T15:11:47;18.30;9.00
326;DHT22;150;52.352;14.058;2023-10-08T15:14:19;18.30;8.20
326;DHT22;150;52.352;14.058;2023-10-08T15:24:07;17.90;7.70
326;DHT22;150;52.352;14.058;2023-10-08T15:26:52;17.60;8.50
326;DHT22;150;52.352;14.058;2023-10-08T15:29:28;17.40;9.10
326;DHT22;150;52.352;14.058;2023-10-08T15:32:04;17.20;9.50
326;DHT22;150;52.352;14.058;2023-10-08T15:34:34;17.10;9.90
326;DHT22;150;52.352;14.058;2023-10-08T15:38:05;17.20;10.60
326;DHT22;150;52.352;14.058;2023-10-08T15:40:50;17.20;10.60
326;DHT22;150;52.352;14.058;2023-10-08T15:43:33;17.00;10.50
326;DHT22;150;52.352;14.058;2023-10-08T15:46:28;16.90;10.40
326;DHT22;150;52.352;14.058;2023-10-08T15:49:25;16.80;10.40
326;DHT22;150;52.352;14.058;2023-10-08T15:52:09;16.60;10.70
326;DHT22;150;52.352;14.058;2023-10-08T15:54:59;16.40;11.20
326;DHT22;150;52.352;14.058;2023-10-08T15:57:59;16.40;12.30
326;DHT22;150;52.352;14.058;2023-10-08T16:00:34;16.40;14.00
326;DHT22;150;52.352;14.058;2023-10-08T16:03:38;16.40;14.50
326;DHT22;150;52.352;14.058;2023-10-08T16:06:29;16.90;14.60
326;DHT22;150;52.352;14.058;2023-10-08T16:09:11;16.40;14.20
326;DHT22;150;52.352;14.058;2023-10-08T16:12:16;16.40;15.40
326;DHT22;150;52.352;14.058;2023-10-08T16:14:49;16.30;16.00
326;DHT22;150;52.352;14.058;2023-10-08T16:17:51;16.30;16.10
326;DHT22;150;52.352;14.058;2023-10-08T16:20:40;16.30;17.40
326;DHT22;150;52.352;14.058;2023-10-08T16:23:12;16.30;17.80
326;DHT22;150;52.352;14.058;2023-10-08T16:28:49;16.20;17.90
326;DHT22;150;52.352;14.058;2023-10-08T16:31:23;16.10;18.70
326;DHT22;150;52.352;14.058;2023-10-08T16:34:28;16.10;19.30
326;DHT22;150;52.352;14.058;2023-10-08T16:44:51;16.00;21.10
326;DHT22;150;52.352;14.058;2023-10-08T16:47:57;15.90;21.80
326;DHT22;150;52.352;14.058;2023-10-08T16:50:51;15.90;21.40
326;DHT22;150;52.352;14.058;2023-10-08T16:54:15;15.80;21.40
326;DHT22;150;52.352;14.058;2023-10-08T16:57:09;15.70;21.40
326;DHT22;150;52.352;14.058;2023-10-08T16:59:53;15.70;21.60
326;DHT22;150;52.352;14.058;2023-10-08T17:03:02;15.50;22.20
326;DHT22;150;52.352;14.058;2023-10-08T17:12:23;15.60;22.00
326;DHT22;150;52.352;14.058;2023-10-08T17:15:39;15.60;21.80
326;DHT22;150;52.352;14.058;2023-10-08T17:19:20;15.60;22.40
326;DHT22;150;52.352;14.058;2023-10-08T17:22:31;15.60;22.50
326;DHT22;150;52.352;14.058;2023-10-08T17:32:14;15.50;23.10
326;DHT22;150;52.352;14.058;2023-10-08T17:35:37;15.40;22.40
326;DHT22;150;52.352;14.058;2023-10-08T17:39:06;15.40;22.80
326;DHT22;150;52.352;14.058;2023-10-08T17:42:32;15.40;23.50
326;DHT22;150;52.352;14.058;2023-10-08T17:49:09;15.30;24.10
326;DHT22;150;52.352;14.058;2023-10-08T17:52:31;15.30;24.70
326;DHT22;150;52.352;14.058;2023-10-08T17:55:28;15.20;24.60
326;DHT22;150;52.352;14.058;2023-10-08T18:01:57;15.10;25.10
326;DHT22;150;52.352;14.058;2023-10-08T18:05:07;15.10;25.50
326;DHT22;150;52.352;14.058;2023-10-08T18:08:47;15.00;25.60
326;DHT22;150;52.352;14.058;2023-10-08T18:11:38;15.00;25.50